Weather observations for the past three days for
Shreveport, Shreveport Regional Airport
| Date | Time (cdt) | Wind (mph) | Vis. (mi.) | Weather | Sky Cond. | Temperature (ºF) | Relative Humidity | Wind Chill (°F) | Heat Index (°F) | Pressure | Precipitation (in) | ||||||
|---|---|---|---|---|---|---|---|---|---|---|---|---|---|---|---|---|---|
| Air | Dwpt | 6 hour | altimeter (in) | sea level (mb) | 1 hr | 3 hr | 6 hr | ||||||||||
| Max. | Min. | ||||||||||||||||
| 02 | 16:56 | Calm | 10.00 | Partly Cloudy | SCT070 SCT090 | 71.6 | 42.8 | 36% | 30.07 | 0.0 | |||||||
| 02 | 15:56 | N 9 | 10.00 | Partly Cloudy | SCT070 | 73.4 | 42.8 | 33% | 30.08 | 0.0 | |||||||
| 02 | 14:56 | N 9 | 10.00 | Partly Cloudy | SCT065 | 73.4 | 42.8 | 33% | 30.11 | 0.0 | |||||||
| 02 | 13:56 | Calm | 10.00 | Partly Cloudy | SCT065 | 71.6 | 42.8 | 36% | 30.13 | 0.0 | |||||||
| 02 | 12:56 | Calm | 10.00 | A Few Clouds | FEW050 | 69.8 | 42.8 | 38% | 30.15 | 0.0 | |||||||
| 02 | 11:56 | N 7 | 10.00 | A Few Clouds | FEW050 | 69.8 | 42.8 | 38% | 30.16 | 0.0 | |||||||
| 02 | 10:56 | NE 6 | 10.00 | Fair | CLR | 66.2 | 46.4 | 49% | 30.15 | 0.0 | |||||||
| 02 | 09:56 | NE 7 | 10.00 | Fair | CLR | 64.4 | 51.8 | 64% | 30.14 | 0.0 | |||||||
| 02 | 08:56 | N 8 | 10.00 | Fair | CLR | 60.8 | 51.8 | 72% | 30.13 | 0.0 | |||||||
| 02 | 07:56 | N 6 | 10.00 | A Few Clouds | FEW110 FEW150 | 57.2 | 51.8 | 82% | 30.12 | 0.0 | |||||||
| 02 | 06:56 | N 5 | 10.00 | Partly Cloudy | FEW110 SCT150 | 55.4 | 51.8 | 88% | 30.08 | 0.0 | |||||||
| 02 | 05:56 | N 7 | 10.00 | Mostly Cloudy | FEW110 BKN150 | 55.4 | 51.8 | 88% | 30.06 | 0.0 | |||||||
| 02 | 04:56 | N 8 | 10.00 | Mostly Cloudy | FEW110 BKN150 | 55.4 | 53.6 | 94% | 30.04 | 0.0 | |||||||
| 02 | 03:56 | N 9 | 10.00 | Overcast | FEW090 SCT110 OVC140 | 57.2 | 53.6 | 88% | 30.04 | 0.0 | |||||||
| 02 | 02:56 | N 7 | 10.00 | Overcast | SCT090 BKN110 OVC130 | 57.2 | 51.8 | 82% | 30.04 | 0.0 | |||||||
| 02 | 01:56 | N 8 | 10.00 | Overcast | SCT090 BKN110 OVC130 | 57.2 | 51.8 | 82% | 30.03 | 0.0 | |||||||
| 02 | 00:56 | NW 7 | 10.00 | Overcast | SCT090 OVC100 | 57.2 | 53.6 | 88% | 30.05 | 0.0 | |||||||
| 01 | 23:56 | N 6 | 10.00 | Overcast | BKN090 OVC100 | 55.4 | 53.6 | 94% | 30.04 | 0.0 | |||||||
| 01 | 22:56 | SE 5 | 10.00 | Overcast | BKN090 OVC110 | 55.4 | 53.6 | 94% | 30.02 | 0.0 | |||||||
| 01 | 21:56 | N 3 | 10.00 | Light Rain | BKN095 OVC110 | 57.2 | 53.6 | 88% | 30.03 | 0.0 | |||||||
| 01 | 20:56 | N 5 | 10.00 | Overcast | FEW070 OVC095 | 57.2 | 53.6 | 88% | 30.02 | 0.0 | |||||||
| 01 | 19:56 | NE 5 | 10.00 | Light Rain | FEW070 OVC100 | 57.2 | 51.8 | 82% | 29.99 | 0.0 | |||||||
| 01 | 18:56 | E 8 | 10.00 | Light Rain | FEW065 BKN090 OVC110 | 57.2 | 53.6 | 88% | 29.98 | 0.0 | |||||||
| 01 | 17:56 | E 7 | 10.00 | Overcast | BKN065 OVC080 | 57.2 | 51.8 | 82% | 29.98 | 0.0 | |||||||
| 01 | 16:56 | N 8 | 10.00 | Overcast | BKN060 OVC080 | 57.2 | 51.8 | 82% | 29.96 | 0.0 | |||||||
| 01 | 15:56 | N 9 | 10.00 | Overcast | BKN048 OVC080 | 57.2 | 51.8 | 82% | 29.94 | 0.0 | |||||||
| 01 | 14:56 | NE 12 G 21 | 10.00 | Light Rain | FEW012 SCT060 OVC100 | 55.4 | 53.6 | 94% | 29.92 | 0.0 | |||||||
| 01 | 13:56 | NE 12 | 10.00 | Light Rain | FEW012 SCT070 OVC100 | 55.4 | 53.6 | 94% | 29.99 | 0.0 | |||||||
| 01 | 12:56 | NE 10 | 7.00 | Light Rain | FEW008 BKN060 OVC090 | 55.4 | 53.6 | 94% | 30.02 | 0.0 | |||||||
| 01 | 11:56 | NE 7 | 3.00 | Rain Fog/Mist | FEW008 OVC060 | 55.4 | 53.6 | 94% | 30.04 | 0.0 | |||||||
| 01 | 10:56 | Vrbl 5 | 6.00 | Light Rain Fog/Mist | SCT009 OVC043 | 55.4 | 53.6 | 94% | 30.06 | 0.0 | |||||||
| 01 | 09:56 | E 8 | 7.00 | Light Rain | FEW007 OVC038 | 55.4 | 53.6 | 94% | 30.01 | 0.0 | |||||||
| 01 | 08:56 | E 9 | 6.00 | Light Rain Fog/Mist | SCT007 OVC035 | 55.4 | 53.6 | 94% | 30.01 | 0.0 | |||||||
| 01 | 07:56 | NE 7 | 2.50 | Heavy Rain Fog/Mist | FEW012 OVC035 | 53.6 | 51.8 | 94% | 30.02 | 0.0 | |||||||
| 01 | 06:56 | N 9 | 10.00 | Light Rain | OVC032 | 55.4 | 51.8 | 88% | 29.99 | 0.0 | |||||||
| 01 | 05:56 | NE 7 | 10.00 | Overcast | OVC033 | 57.2 | 50 | 77% | 29.96 | 0.0 | |||||||
| 01 | 04:56 | NE 8 | 10.00 | Overcast | OVC032 | 57.2 | 50 | 77% | 29.95 | 0.0 | |||||||
| 01 | 03:56 | NE 12 | 10.00 | Overcast | OVC028 | 57.2 | 51.8 | 82% | 29.94 | 0.0 | |||||||
| 01 | 02:56 | NE 12 | 10.00 | Overcast | OVC030 | 57.2 | 51.8 | 82% | 29.95 | 0.0 | |||||||
| 01 | 01:56 | NE 12 | 10.00 | Overcast | OVC029 | 59 | 51.8 | 77% | 29.98 | 0.0 | |||||||
| 01 | 00:56 | N 9 | 10.00 | Light Rain | FEW017 OVC031 | 59 | 53.6 | 82% | 29.99 | 0.0 | |||||||
| 30 | 23:56 | N 8 | 10.00 | Light Rain | FEW017 OVC031 | 59 | 55.4 | 88% | 29.95 | 0.0 | |||||||
| 30 | 22:56 | N 8 | 10.00 | Overcast | FEW017 OVC035 | 60.8 | 55.4 | 83% | 29.99 | 0.0 | |||||||
| 30 | 21:56 | NE 8 | 10.00 | Overcast | FEW014 OVC035 | 60.8 | 55.4 | 83% | 29.97 | 0.0 | |||||||
| 30 | 20:56 | NE 7 | 10.00 | Overcast | FEW007 SCT013 OVC035 | 60.8 | 57.2 | 88% | 29.96 | 0.0 | |||||||
| 30 | 20:39 | Vrbl 5 | 10.00 | Overcast | FEW008 SCT013 OVC037 | 60.8 | 57.2 | 88% | 29.95 | 0.0 | |||||||
| 30 | 19:56 | N 10 | 9.00 | Overcast | SCT006 BKN018 OVC038 | 60.8 | 57.2 | 88% | 29.92 | 0.0 | |||||||
| 30 | 19:30 | NE 10 | 8.00 | Light Rain | SCT005 BKN018 OVC039 | 60.8 | 57.2 | 88% | 29.9 | 0.0 | |||||||
| 30 | 18:56 | NE 10 | 8.00 | Light Rain | BKN006 BKN012 BKN050 OVC100 | 60.8 | 59 | 94% | 29.9 | 0.0 | |||||||
| 30 | 17:56 | NE 8 | 8.00 | Light Rain | FEW009 SCT048 BKN080 OVC110 | 60.8 | 59 | 94% | 29.89 | 0.0 | |||||||
| 30 | 16:56 | E 6 | 8.00 | Light Rain | FEW036 SCT044 BKN065 OVC110 | 60.8 | 57.2 | 88% | 29.9 | 0.0 | |||||||
| 30 | 15:56 | E 7 | 5.00 | Light Rain Fog/Mist | FEW016 SCT035 OVC090 | 60.8 | 57.2 | 88% | 29.95 | 0.0 | |||||||
| 30 | 14:56 | E 14 | 5.00 | Light Rain Fog/Mist | FEW022 BKN032 OVC050 | 60.8 | 57.2 | 88% | 29.93 | 0.0 | |||||||
| 30 | 13:56 | N 9 | 10.00 | Light Rain | BKN021 OVC030 | 64.4 | 55.4 | 73% | 29.97 | 0.0 | |||||||
| 30 | 12:56 | NE 13 | 10.00 | Overcast | BKN020 OVC038 | 64.4 | 57.2 | 78% | 29.95 | 0.0 | |||||||
| 30 | 11:56 | E 14 | 10.00 | Overcast | BKN018 OVC033 | 64.4 | 57.2 | 78% | 29.95 | 0.0 | |||||||
| 30 | 10:56 | NE 13 | 10.00 | Overcast | OVC017 | 62.6 | 57.2 | 83% | 29.96 | 0.0 | |||||||
| 30 | 09:56 | E 13 | 10.00 | Overcast | BKN017 OVC031 | 62.6 | 57.2 | 83% | 29.95 | 0.0 | |||||||
| 30 | 08:56 | E 12 | 10.00 | Overcast | FEW009 BKN014 OVC031 | 62.6 | 57.2 | 83% | 29.96 | 0.0 | |||||||
| 30 | 07:56 | E 12 | 10.00 | Overcast | FEW010 BKN017 OVC027 | 60.8 | 57.2 | 88% | 29.94 | 0.0 | |||||||
| 30 | 06:56 | E 9 | 10.00 | Overcast | BKN012 OVC025 | 60.8 | 57.2 | 88% | 29.93 | 0.0 | |||||||
| 30 | 05:56 | NE 12 G 18 | 10.00 | Overcast | BKN010 OVC027 | 60.8 | 59 | 94% | 29.9 | 0.0 | |||||||
| 30 | 04:56 | NE 15 G 22 | 10.00 | Overcast | OVC009 | 60.8 | 59 | 94% | 29.92 | 0.0 | |||||||
| 30 | 03:56 | NE 13 G 21 | 10.00 | Light Drizzle | BKN008 OVC021 | 60.8 | 59 | 94% | 29.91 | 0.0 | |||||||
| 30 | 02:56 | NE 9 | 10.00 | Light Rain | OVC010 | 62.6 | 60.8 | 94% | 29.93 | 0.0 | |||||||
| 30 | 01:56 | N 14 | 10.00 | Thunderstorm | OVC008CB | 62.6 | 60.8 | 94% | 29.97 | 0.0 | |||||||
| 30 | 00:56 | NE 8 | 4.00 | Thunderstorm Light Rain Fog/Mist | OVC004CB | 62.6 | 60.8 | 94% | 29.94 | 0.0 | |||||||
| 29 | 23:56 | NE 14 | 10.00 | Overcast | OVC007 | 62.6 | 60.8 | 94% | 29.91 | 0.0 | |||||||
| 29 | 22:56 | NE 13 | 10.00 | Overcast | OVC007 | 64.4 | 62.6 | 94% | 29.96 | 0.0 | |||||||
| 29 | 21:56 | E 8 | 10.00 | Overcast | BKN008 OVC012 | 64.4 | 62.6 | 94% | 29.94 | 0.0 | |||||||
| 29 | 20:56 | NE 8 | 10.00 | Overcast | BKN008 OVC012 | 64.4 | 62.6 | 94% | 29.9 | 0.0 | |||||||
| 29 | 19:56 | NE 10 | 10.00 | Overcast | BKN007 OVC012 | 66.2 | 64.4 | 94% | 29.84 | 0.0 | |||||||
| 29 | 18:56 | N 7 | 10.00 | Overcast | FEW001 OVC006 | 68 | 66.2 | 94% | 29.84 | 0.0 | |||||||
| 29 | 17:56 | SE 8 | 7.00 | Thunderstorm Light Rain | FEW005 BKN020CB OVC040 | 66.2 | 66.2 | 100% | 29.85 | 0.0 | |||||||
| Date | Time (cdt) | Wind (mph) | Vis. (mi.) | Weather | Sky Cond. | Air | Dwpt | Max. | Min. | Relative Humidity | Wind Chill (°F) | Heat Index (°F) | altimeter (in) | sea level (mb) | 1 hr | 3 hr | 6 hr |
| 6 hour | |||||||||||||||||
| Temperature (ºF) | Pressure | Precipitation (in) | |||||||||||||||